Time;durP1;ratioP1;P1;durP2;ratioP2;P2;SDS_P1;SDS_P2;PMS_P1;PMS_P2;Temp;Humidity;BMP_temperature;BMP_pressure;BME280_temperature;BME280_humidity;BME280_pressure;Samples;Min_cycle;Max_cycle;Signal;HPM_P1;HPM_P2
2021/05/15 00:01:11;;;;;;;6.47;2.75;;;;;;;14.79;56.40;99713.66;5029805;28;20029;-21
2021/05/15 00:03:37;;;;;;;6.15;2.88;;;;;;;14.11;58.73;99715.06;5029273;28;20120;-21
2021/05/15 00:06:03;;;;;;;7.40;3.08;;;;;;;13.77;60.03;99725.91;5029523;28;20460;-21
2021/05/15 00:08:29;;;;;;;5.80;2.85;;;;;;;13.99;59.17;99707.94;5028316;28;20618;-20
2021/05/15 00:10:54;;;;;;;6.07;2.83;;;;;;;14.11;58.70;99704.34;5029274;28;20029;-22
2021/05/15 00:13:20;;;;;;;6.07;2.85;;;;;;;14.79;57.43;99719.03;5029335;28;20018;-21
2021/05/15 00:15:46;;;;;;;5.07;3.03;;;;;;;14.98;56.83;99710.59;5029495;28;20079;-21
2021/05/15 00:18:12;;;;;;;5.93;2.90;;;;;;;14.38;58.79;99723.94;5028958;28;20410;-20
2021/05/15 00:20:37;;;;;;;5.72;3.08;;;;;;;14.25;59.35;99719.78;5029384;28;20041;-21
2021/05/15 00:23:03;;;;;;;5.75;3.53;;;;;;;14.79;58.02;99719.03;5028968;28;20060;-22
2021/05/15 00:25:28;;;;;;;8.45;3.80;;;;;;;14.54;58.53;99699.97;5028904;28;20037;-21
2021/05/15 00:27:53;;;;;;;6.70;3.72;;;;;;;14.08;61.10;99713.72;5029434;28;20029;-22
2021/05/15 00:30:19;;;;;;;6.53;3.85;;;;;;;13.52;62.89;99721.00;5028712;28;20082;-22
2021/05/15 00:32:45;;;;;;;7.03;3.38;;;;;;;13.23;64.42;99724.59;5029415;28;20033;-21
2021/05/15 00:35:11;;;;;;;6.20;3.53;;;;;;;13.21;63.88;99702.59;5028972;28;20446;-22
2021/05/15 00:37:36;;;;;;;9.65;3.40;;;;;;;13.87;62.60;99728.72;5028748;28;20029;-21
2021/05/15 00:40:06;;;;;;;6.07;3.53;;;;;;;13.80;62.66;99722.75;5028520;28;20037;-21
2021/05/15 00:42:32;;;;;;;5.90;3.50;;;;;;;14.00;61.73;99712.25;5028847;28;20091;-24
2021/05/15 00:44:58;;;;;;;7.93;3.40;;;;;;;14.09;61.49;99698.41;5028823;28;20115;-21
2021/05/15 00:47:23;;;;;;;6.53;3.30;;;;;;;14.02;61.68;99698.63;5028715;28;20060;-22
2021/05/15 00:49:50;;;;;;;5.85;3.53;;;;;;;13.87;61.69;99691.19;5028610;28;20398;-21
2021/05/15 00:52:16;;;;;;;6.22;3.55;;;;;;;13.85;62.38;99725.47;5028048;28;20069;-21
2021/05/15 00:54:41;;;;;;;6.68;3.47;;;;;;;13.64;63.34;99709.13;5028336;28;20075;-21
2021/05/15 00:57:08;;;;;;;7.15;3.70;;;;;;;13.44;63.80;99708.84;5028593;28;20025;-21
2021/05/15 00:59:34;;;;;;;6.65;3.83;;;;;;;13.38;64.31;99710.66;5028615;28;20095;-21
2021/05/15 01:02:00;;;;;;;6.03;3.30;;;;;;;13.39;64.51;99706.09;5028476;28;20040;-21
2021/05/15 01:04:25;;;;;;;8.45;3.50;;;;;;;13.62;63.06;99700.53;5027920;28;20098;-21
2021/05/15 01:06:51;;;;;;;6.93;3.70;;;;;;;13.33;64.17;99680.31;5028178;28;20029;-20
2021/05/15 01:09:17;;;;;;;5.65;3.35;;;;;;;13.24;64.35;99678.03;5028269;28;20052;-21
2021/05/15 01:11:42;;;;;;;5.82;3.58;;;;;;;13.34;64.01;99695.31;5028390;28;20041;-21
2021/05/15 01:14:08;;;;;;;7.18;3.88;;;;;;;13.56;63.38;99685.44;5028300;28;20398;-21
2021/05/15 01:16:34;;;;;;;7.28;3.80;;;;;;;14.37;60.46;99708.13;5028064;28;20037;-22
2021/05/15 01:18:59;;;;;;;6.45;3.70;;;;;;;14.13;60.12;99704.91;5028092;28;20041;-22
2021/05/15 01:21:25;;;;;;;6.65;3.70;;;;;;;13.97;61.10;99715.44;5027744;28;20041;-22
2021/05/15 01:23:50;;;;;;;6.10;3.67;;;;;;;14.14;60.84;99715.38;5026439;28;20061;-21
2021/05/15 01:26:20;;;;;;;7.38;3.90;;;;;;;13.78;61.86;99708.78;5027825;28;20041;-21
2021/05/15 01:28:48;;;;;;;8.02;3.75;;;;;;;14.34;60.16;99712.09;5027886;28;20017;-21
2021/05/15 01:31:14;;;;;;;7.95;4.40;;;;;;;14.24;59.89;99694.03;5027864;28;20044;-22
2021/05/15 01:33:39;;;;;;;9.48;3.90;;;;;;;14.54;59.69;99695.41;5027810;28;20033;-21
2021/05/15 01:36:08;;;;;;;8.75;5.05;;;;;;;14.63;59.08;99710.03;5027701;28;20412;-22
2021/05/15 01:38:34;;;;;;;7.30;4.00;;;;;;;14.45;59.02;99697.72;5027281;28;20025;-21
2021/05/15 01:41:12;;;;;;;8.63;3.90;;;;;;;14.23;59.04;99688.91;5027586;28;20084;-21
2021/05/15 01:43:37;;;;;;;7.75;3.88;;;;;;;14.65;58.42;99696.34;5027458;28;20057;-21
2021/05/15 01:46:04;;;;;;;8.02;4.03;;;;;;;14.35;59.12;99700.31;5027710;28;20159;-21
2021/05/15 01:48:29;;;;;;;7.07;4.05;;;;;;;14.04;60.75;99694.63;5027514;28;20068;-20
2021/05/15 01:51:01;;;;;;;9.60;4.07;;;;;;;14.50;59.61;99707.69;5027593;28;20053;-21
2021/05/15 01:53:27;;;;;;;6.28;4.38;;;;;;;14.74;59.25;99716.28;5027545;28;20124;-21
2021/05/15 01:55:54;;;;;;;7.63;4.03;;;;;;;14.64;59.10;99726.91;5027456;28;20119;-21
2021/05/15 01:58:19;;;;;;;6.38;4.20;;;;;;;13.85;60.69;99725.47;5027213;28;20037;-21
2021/05/15 02:00:45;;;;;;;8.80;3.90;;;;;;;13.60;61.68;99726.75;5027476;28;20033;-20
2021/05/15 02:03:10;;;;;;;7.82;3.97;;;;;;;13.54;61.58;99703.63;5027390;28;20104;-22
2021/05/15 02:05:36;;;;;;;7.75;3.67;;;;;;;13.57;60.69;99708.50;5027008;28;20048;-21
2021/05/15 02:08:01;;;;;;;6.38;3.67;;;;;;;13.68;59.71;99724.72;5027611;28;20045;-22
2021/05/15 02:10:26;;;;;;;6.53;3.83;;;;;;;13.64;59.25;99719.03;5026963;28;20037;-22
2021/05/15 02:12:52;;;;;;;8.95;3.97;;;;;;;13.71;59.28;99716.16;5027197;28;20045;-21
2021/05/15 02:15:18;;;;;;;9.27;4.32;;;;;;;13.68;59.09;99714.00;5027096;28;20041;-21
2021/05/15 02:17:43;;;;;;;6.78;3.78;;;;;;;13.39;61.28;99717.63;5027217;28;20033;-21
2021/05/15 02:20:09;;;;;;;7.03;4.40;;;;;;;13.59;59.75;99700.22;5026959;28;20485;-21
2021/05/15 02:22:34;;;;;;;8.35;5.10;;;;;;;13.38;60.19;99728.56;5025620;28;20037;-21
2021/05/15 02:25:00;;;;;;;8.75;4.35;;;;;;;12.99;61.64;99715.09;5027144;28;20049;-21
2021/05/15 02:27:25;;;;;;;6.70;3.95;;;;;;;12.74;61.93;99710.94;5027316;28;20034;-22
2021/05/15 02:29:51;;;;;;;7.15;4.10;;;;;;;13.12;60.92;99711.28;5027199;28;20048;-21
2021/05/15 02:32:16;;;;;;;7.72;3.90;;;;;;;13.09;60.03;99696.53;5030894;28;20489;-21
2021/05/15 02:34:42;;;;;;;10.02;4.68;;;;;;;12.81;61.59;99718.81;5031091;28;20029;-21
2021/05/15 02:37:07;;;;;;;8.52;4.10;;;;;;;12.71;61.98;99716.78;5031480;28;20044;-22
2021/05/15 02:39:32;;;;;;;10.45;4.53;;;;;;;12.64;62.65;99710.78;5029728;28;20441;-21
2021/05/15 02:41:58;;;;;;;7.13;4.20;;;;;;;12.61;62.59;99706.72;5030960;28;20151;-22
2021/05/15 02:44:23;;;;;;;8.55;4.03;;;;;;;12.66;61.52;99709.47;5030856;28;20037;-23
2021/05/15 02:46:49;;;;;;;7.65;4.50;;;;;;;12.85;62.19;99714.59;5030864;28;20029;-22
2021/05/15 02:49:14;;;;;;;7.53;4.57;;;;;;;12.94;61.98;99715.84;5030640;28;20418;-22
2021/05/15 02:51:40;;;;;;;7.43;4.45;;;;;;;13.08;61.45;99713.66;5030847;28;20057;-21
2021/05/15 02:54:05;;;;;;;9.63;4.40;;;;;;;12.38;64.38;99709.50;5030621;28;20025;-21
2021/05/15 02:56:31;;;;;;;7.38;4.25;;;;;;;12.56;63.57;99703.94;5030591;28;20478;-22
2021/05/15 02:58:56;;;;;;;8.77;4.60;;;;;;;13.17;61.69;99701.47;5030652;28;20037;-21
2021/05/15 03:01:22;;;;;;;8.43;4.22;;;;;;;13.46;60.91;99696.00;5030786;28;20037;-22
2021/05/15 03:03:47;;;;;;;8.88;4.75;;;;;;;13.70;59.21;99703.84;5030325;28;20398;-22
2021/05/15 03:06:13;;;;;;;8.60;4.38;;;;;;;13.64;58.61;99689.56;5030514;28;20034;-21
2021/05/15 03:08:38;;;;;;;6.68;4.55;;;;;;;13.63;59.22;99694.13;5030722;28;20414;-21
2021/05/15 03:11:04;;;;;;;7.80;4.22;;;;;;;13.72;58.81;99707.91;5030631;28;20803;-22
2021/05/15 03:13:29;;;;;;;6.85;4.38;;;;;;;13.86;58.72;99694.94;5030334;28;20056;-22
2021/05/15 03:15:55;;;;;;;7.90;4.80;;;;;;;13.74;59.61;99697.72;5030324;28;20033;-22
2021/05/15 03:18:20;;;;;;;8.40;4.65;;;;;;;12.48;63.42;99698.19;5029977;28;20152;-22
2021/05/15 03:20:45;;;;;;;8.15;4.43;;;;;;;11.77;65.54;99733.13;5030206;28;20041;-22
2021/05/15 03:23:12;;;;;;;8.48;4.43;;;;;;;11.60;65.74;99728.50;5030043;28;20382;-22
2021/05/15 03:25:38;;;;;;;7.90;4.20;;;;;;;11.94;64.94;99733.25;5030231;28;20037;-22
2021/05/15 03:28:04;;;;;;;6.97;3.90;;;;;;;11.96;64.92;99742.66;5030231;28;20037;-22
2021/05/15 03:30:29;;;;;;;6.88;3.90;;;;;;;12.03;63.71;99716.63;5030157;28;20049;-21
2021/05/15 03:32:54;;;;;;;6.82;4.32;;;;;;;11.96;64.41;99739.97;5030069;28;20025;-22
2021/05/15 03:35:20;;;;;;;8.77;4.57;;;;;;;12.26;64.21;99736.31;5030163;28;20099;-21
2021/05/15 03:37:45;;;;;;;8.48;4.50;;;;;;;12.63;63.25;99725.22;5030273;28;20749;-21
2021/05/15 03:40:11;;;;;;;6.85;4.28;;;;;;;12.89;62.20;99737.16;5029771;28;20030;-21
2021/05/15 03:42:38;;;;;;;8.90;4.55;;;;;;;12.81;61.92;99742.91;5028519;28;20029;-21
2021/05/15 03:45:04;;;;;;;6.05;3.85;;;;;;;12.90;62.07;99732.63;5029785;28;20116;-21
2021/05/15 03:47:30;;;;;;;7.47;4.40;;;;;;;13.02;62.34;99746.75;5029589;28;20099;-21
2021/05/15 03:49:55;;;;;;;8.38;4.72;;;;;;;12.85;63.59;99744.03;5030003;28;20489;-22
2021/05/15 03:52:21;;;;;;;6.50;4.00;;;;;;;13.49;61.85;99745.63;5029611;28;20092;-22
2021/05/15 03:54:46;;;;;;;10.45;4.43;;;;;;;13.58;61.62;99752.97;5029859;28;20547;-22
2021/05/15 03:57:12;;;;;;;7.28;4.60;;;;;;;13.03;63.80;99756.38;5029608;28;20029;-21
2021/05/15 03:59:37;;;;;;;7.25;4.90;;;;;;;13.01;64.09;99743.25;5029704;28;20033;-22
2021/05/15 04:02:03;;;;;;;9.73;5.15;;;;;;;13.14;64.06;99741.31;5029336;28;20022;-21
2021/05/15 04:04:29;;;;;;;9.30;5.50;;;;;;;13.54;62.80;99751.03;5029196;28;20033;-22
2021/05/15 04:06:54;;;;;;;10.20;5.68;;;;;;;13.57;62.70;99762.09;5028060;28;20029;-21
2021/05/15 04:09:20;;;;;;;8.10;4.97;;;;;;;13.29;64.42;99759.50;5029293;28;20037;-22
2021/05/15 04:11:45;;;;;;;10.13;5.20;;;;;;;13.27;64.37;99762.41;5029279;28;20029;-21
2021/05/15 04:16:59;;;;;;;12.82;5.88;;;;;;;13.49;63.54;99759.81;5027900;28;20033;-22
2021/05/15 04:19:24;;;;;;;9.90;5.75;;;;;;;13.81;62.38;99735.06;5029503;28;20108;-22
2021/05/15 04:21:51;;;;;;;8.90;5.20;;;;;;;14.21;61.23;99758.09;5029156;28;20033;-22
2021/05/15 04:24:16;;;;;;;10.70;5.15;;;;;;;14.62;60.04;99762.06;5028776;28;20030;-21
2021/05/15 04:26:42;;;;;;;12.30;5.30;;;;;;;14.51;60.60;99748.78;5028999;28;20095;-21
2021/05/15 04:29:07;;;;;;;19.17;8.20;;;;;;;14.58;60.26;99752.88;5029059;28;20049;-22
2021/05/15 04:31:33;;;;;;;17.55;9.40;;;;;;;14.86;59.40;99743.78;5027804;28;20037;-22
2021/05/15 04:33:58;;;;;;;18.70;9.68;;;;;;;14.71;60.21;99742.81;5029017;28;20034;-22
2021/05/15 04:36:23;;;;;;;14.55;8.25;;;;;;;14.46;61.31;99761.06;5028619;28;20032;-22
2021/05/15 04:38:52;;;;;;;12.35;6.97;;;;;;;14.63;60.48;99757.53;5028812;28;20418;-22
2021/05/15 04:41:17;;;;;;;;;;;;;;;14.82;60.44;99753.41;5029176;28;20410;-22
2021/05/15 04:43:43;;;;;;;8.15;5.03;;;;;;;14.70;60.63;99757.31;5028574;28;19913;-22
2021/05/15 04:46:08;;;;;;;8.90;5.15;;;;;;;14.95;60.44;99754.03;5028608;28;20037;-22
2021/05/15 04:48:37;;;;;;;8.52;5.60;;;;;;;15.16;59.87;99750.47;5028228;28;20029;-22
2021/05/15 04:51:02;;;;;;;11.77;6.13;;;;;;;15.33;59.55;99752.22;5028479;28;20077;-22
2021/05/15 04:53:29;;;;;;;14.15;6.82;;;;;;;15.47;59.48;99748.00;5028138;28;20061;-22
2021/05/15 04:55:55;;;;;;;13.52;7.03;;;;;;;15.80;59.43;99748.75;5028464;28;20119;-22
2021/05/15 04:58:20;;;;;;;12.82;7.40;;;;;;;15.67;59.89;99748.13;5027919;28;20484;-22
2021/05/15 05:00:47;;;;;;;13.75;7.50;;;;;;;15.64;60.44;99743.25;5028408;28;20040;-23
2021/05/15 05:03:15;;;;;;;15.30;7.32;;;;;;;15.88;59.79;99750.97;5028455;28;20045;-22
2021/05/15 05:05:41;;;;;;;11.10;6.85;;;;;;;15.83;60.47;99750.91;5028432;28;20040;-22
2021/05/15 05:08:06;;;;;;;11.82;6.53;;;;;;;15.64;60.64;99754.00;5028281;28;20037;-21
2021/05/15 05:10:32;;;;;;;12.38;6.68;;;;;;;15.64;61.19;99756.69;5028367;28;20064;-21
2021/05/15 05:12:57;;;;;;;13.18;7.10;;;;;;;15.66;60.60;99754.56;5026810;28;20041;-22
2021/05/15 05:15:23;;;;;;;11.10;5.95;;;;;;;15.57;61.42;99750.75;5028316;28;20474;-22
2021/05/15 05:17:48;;;;;;;9.25;6.20;;;;;;;15.25;62.20;99748.91;5028104;28;20037;-22
2021/05/15 05:20:13;;;;;;;10.98;6.32;;;;;;;15.66;61.87;99746.50;5027727;28;20048;-21
2021/05/15 05:22:39;;;;;;;12.32;6.78;;;;;;;15.67;61.38;99750.00;5028065;28;20052;-22
2021/05/15 05:25:07;;;;;;;10.57;6.40;;;;;;;15.33;63.38;99733.41;5028143;28;20447;-22
2021/05/15 05:27:32;;;;;;;11.07;6.90;;;;;;;15.70;62.82;99746.00;5027681;28;20040;-22
2021/05/15 05:29:58;;;;;;;9.63;6.78;;;;;;;15.88;62.21;99750.97;5026684;28;20033;-22
2021/05/15 05:32:23;;;;;;;10.65;6.45;;;;;;;16.10;60.65;99763.41;5027697;28;20551;-22
2021/05/15 05:34:49;;;;;;;9.13;6.95;;;;;;;15.86;61.15;99761.97;5026569;28;20033;-22
2021/05/15 05:37:14;;;;;;;9.30;6.10;;;;;;;15.91;60.51;99763.06;5026449;28;20030;-22
2021/05/15 05:39:40;;;;;;;9.10;6.03;;;;;;;15.75;61.69;99764.84;5026384;28;20049;-22
2021/05/15 05:42:06;;;;;;;11.30;6.38;;;;;;;16.10;60.66;99741.88;5026364;28;20059;-22
2021/05/15 05:44:31;;;;;;;9.55;6.32;;;;;;;15.93;61.07;99764.41;5027324;28;20025;-22
2021/05/15 05:46:57;;;;;;;9.68;5.88;;;;;;;15.20;63.13;99746.22;5027541;28;20034;-21
2021/05/15 05:49:22;;;;;;;11.20;6.20;;;;;;;15.40;62.98;99766.22;5026488;28;20057;-22
2021/05/15 05:51:48;;;;;;;10.80;6.32;;;;;;;15.27;62.56;99727.97;5027577;28;20127;-22
2021/05/15 05:54:13;;;;;;;11.23;6.80;;;;;;;15.84;61.95;99749.88;5027298;28;20033;-22
2021/05/15 05:56:39;;;;;;;11.45;6.57;;;;;;;15.90;61.29;99737.25;5027316;28;20041;-21
2021/05/15 05:59:04;;;;;;;12.48;6.68;;;;;;;15.89;62.49;99749.88;5027528;28;20418;-22
2021/05/15 06:01:30;;;;;;;9.68;6.40;;;;;;;16.39;60.71;99750.34;5026259;28;20819;-22
2021/05/15 06:03:55;;;;;;;10.38;7.03;;;;;;;16.51;61.07;99750.91;5027359;28;20029;-22
2021/05/15 06:06:21;;;;;;;9.05;5.60;;;;;;;16.63;58.81;99746.09;5026310;28;20041;-22
2021/05/15 06:08:46;;;;;;;8.57;6.40;;;;;;;16.75;59.44;99753.09;5027220;28;20029;-22
2021/05/15 06:11:12;;;;;;;6.82;5.75;;;;;;;17.10;57.27;99738.06;5027022;28;20843;-22
2021/05/15 06:13:38;;;;;;;9.82;5.57;;;;;;;17.66;55.24;99733.41;5027100;28;20040;-21
2021/05/15 06:16:04;;;;;;;7.82;5.35;;;;;;;17.76;55.13;99712.91;5027213;28;20036;-21
2021/05/15 06:18:29;;;;;;;9.23;5.80;;;;;;;17.78;55.71;99726.91;5026909;28;20025;-23
2021/05/15 06:20:55;;;;;;;10.50;4.88;;;;;;;17.83;54.10;99724.22;5026842;28;20041;-22
2021/05/15 06:23:20;;;;;;;7.93;4.88;;;;;;;18.08;54.63;99728.69;5026895;28;20034;-21
2021/05/15 06:25:46;;;;;;;7.47;4.57;;;;;;;18.33;52.96;99730.47;5026353;28;20033;-22
2021/05/15 06:28:11;;;;;;;11.73;4.95;;;;;;;18.61;52.88;99720.03;5026470;28;20029;-23
2021/05/15 06:30:38;;;;;;;7.10;4.65;;;;;;;18.40;52.02;99690.47;5026929;28;20034;-21
2021/05/15 06:33:03;;;;;;;8.98;4.57;;;;;;;18.38;52.56;99698.03;5027160;28;20037;-21
2021/05/15 06:35:29;;;;;;;6.38;3.90;;;;;;;18.68;52.79;99701.63;5027295;28;20069;-21
2021/05/15 06:37:54;;;;;;;8.25;4.68;;;;;;;19.02;52.21;99695.44;5026964;28;20030;-22
2021/05/15 06:40:20;;;;;;;10.57;4.80;;;;;;;19.11;51.61;99684.84;5026507;28;20433;-22
2021/05/15 06:42:45;;;;;;;8.45;4.32;;;;;;;19.07;52.11;99692.69;5026694;28;20034;-21
2021/05/15 06:45:11;;;;;;;6.35;4.65;;;;;;;19.12;52.66;99687.22;5026868;28;20056;-22
2021/05/15 06:47:36;;;;;;;8.13;4.97;;;;;;;19.02;53.34;99679.22;5026980;28;20029;-22
2021/05/15 06:50:06;;;;;;;8.18;4.50;;;;;;;19.17;52.93;99683.69;5026566;28;20034;-21
2021/05/15 06:52:32;;;;;;;10.15;4.72;;;;;;;19.30;52.18;99676.81;5026720;28;20035;-22
2021/05/15 06:54:57;;;;;;;8.20;4.70;;;;;;;19.22;53.75;99672.81;5026772;28;20056;-21
2021/05/15 06:57:23;;;;;;;9.80;5.13;;;;;;;19.33;53.33;99670.81;5026260;28;20401;-22
2021/05/15 06:59:48;;;;;;;7.78;4.50;;;;;;;19.33;52.42;99662.69;5026987;28;20025;-21
2021/05/15 07:02:15;;;;;;;7.55;4.45;;;;;;;19.74;53.16;99671.19;5026270;28;20057;-22
2021/05/15 07:04:41;;;;;;;9.07;4.72;;;;;;;20.06;51.19;99661.56;5026599;28;20018;-21
2021/05/15 07:07:06;;;;;;;7.65;4.78;;;;;;;20.01;52.20;99640.81;5026848;28;20038;-21
2021/05/15 07:09:32;;;;;;;9.32;4.45;;;;;;;19.71;52.45;99657.44;5026860;28;20034;-21
2021/05/15 07:11:57;;;;;;;7.40;4.22;;;;;;;20.01;52.69;99661.66;5026719;28;20107;-21
2021/05/15 07:14:23;;;;;;;7.75;4.47;;;;;;;20.16;51.98;99652.50;5026422;28;20482;-21
2021/05/15 07:16:48;;;;;;;6.80;3.80;;;;;;;20.71;50.98;99647.34;5028397;28;20033;-21
2021/05/15 07:19:14;;;;;;;7.93;4.57;;;;;;;20.94;50.23;99636.66;5030578;28;20083;-21
2021/05/15 07:21:40;;;;;;;9.13;4.00;;;;;;;20.75;50.47;99661.91;5030531;28;20057;-21
2021/05/15 07:24:06;;;;;;;5.88;4.00;;;;;;;20.84;51.54;99634.94;5030107;28;20033;-21
2021/05/15 07:26:31;;;;;;;8.43;3.60;;;;;;;20.55;50.90;99637.84;5029931;28;20037;-21
2021/05/15 07:28:57;;;;;;;4.45;3.25;;;;;;;20.63;49.67;99653.44;5030353;28;20132;-21
2021/05/15 07:31:22;;;;;;;8.88;3.20;;;;;;;20.40;50.00;99653.22;5030247;28;20029;-22
2021/05/15 07:33:48;;;;;;;6.00;3.38;;;;;;;20.23;50.11;99636.72;5030124;28;20398;-22
2021/05/15 07:36:13;;;;;;;7.68;3.70;;;;;;;20.43;50.18;99641.81;5029843;28;20044;-21
2021/05/15 07:38:40;;;;;;;5.90;3.47;;;;;;;20.81;49.98;99636.34;5029949;28;20026;-22
2021/05/15 07:41:05;;;;;;;5.55;3.47;;;;;;;21.07;49.50;99649.47;5029662;28;20898;-22
2021/05/15 07:43:31;;;;;;;5.95;4.03;;;;;;;21.47;49.29;99636.25;5029949;28;20112;-21
2021/05/15 07:45:57;;;;;;;11.45;5.15;;;;;;;21.78;48.79;99630.19;5029890;28;20033;-20
2021/05/15 07:48:44;;;;;;;6.15;3.42;;;;;;;21.59;47.13;99638.47;5029792;28;20021;-21
2021/05/15 07:51:13;;;;;;;24.02;4.72;;;;;;;21.88;47.12;99624.53;5029316;28;20058;-21
2021/05/15 07:53:39;;;;;;;13.20;3.28;;;;;;;22.22;46.67;99640.34;5029620;28;20519;-20
2021/05/15 07:56:04;;;;;;;8.10;3.25;;;;;;;22.26;46.94;99632.41;5030491;28;20063;-21
2021/05/15 07:58:30;;;;;;;6.07;3.17;;;;;;;21.89;47.90;99631.59;5029497;28;20034;-21
2021/05/15 08:00:55;;;;;;;5.50;2.65;;;;;;;21.87;46.31;99631.09;5029583;28;20482;-22
2021/05/15 08:03:21;;;;;;;6.63;2.72;;;;;;;22.41;46.16;99636.69;5029507;28;20033;-21
2021/05/15 08:05:46;;;;;;;6.82;2.63;;;;;;;22.61;44.87;99629.94;5029466;28;20135;-21
2021/05/15 08:08:11;;;;;;;3.80;2.25;;;;;;;22.19;45.17;99604.84;5029278;28;20033;-21
2021/05/15 08:10:37;;;;;;;3.95;2.10;;;;;;;22.23;43.05;99622.13;5029422;28;20032;-21
2021/05/15 08:13:02;;;;;;;7.15;2.15;;;;;;;21.76;43.96;99626.97;5029441;28;20480;-21
2021/05/15 08:15:28;;;;;;;5.93;2.30;;;;;;;21.97;45.46;99633.56;5028307;28;20029;-21
2021/05/15 08:17:54;;;;;;;6.68;1.90;;;;;;;21.55;42.46;99619.25;5029653;28;20033;-21
2021/05/15 08:20:20;;;;;;;4.07;1.77;;;;;;;21.53;44.25;99623.38;5028969;28;20079;-21
2021/05/15 08:22:45;;;;;;;4.25;2.13;;;;;;;22.23;42.84;99622.13;5028596;28;20087;-21
2021/05/15 08:25:11;;;;;;;5.43;1.90;;;;;;;23.03;41.68;99625.13;5028955;28;20490;-21
2021/05/15 08:27:39;;;;;;;6.30;2.28;;;;;;;23.18;40.80;99616.53;5028468;28;20029;-20
2021/05/15 08:30:09;;;;;;;4.40;2.08;;;;;;;22.86;42.47;99609.47;5028825;28;20037;-21
2021/05/15 08:32:34;;;;;;;5.47;2.38;;;;;;;23.15;42.67;99622.59;5028823;28;20068;-22
2021/05/15 08:35:00;;;;;;;7.75;3.60;;;;;;;23.46;40.64;99608.16;5028913;28;20030;-21
2021/05/15 08:37:26;;;;;;;5.63;2.28;;;;;;;23.73;40.87;99614.44;5028796;28;20029;-21
2021/05/15 08:39:51;;;;;;;5.22;2.20;;;;;;;23.35;42.09;99595.94;5029237;28;20043;-21
2021/05/15 08:42:18;;;;;;;8.02;2.30;;;;;;;23.22;41.21;99606.63;5028879;28;20029;-21
2021/05/15 08:44:44;;;;;;;4.22;1.98;;;;;;;23.45;42.22;99603.81;5027687;28;20034;-22
2021/05/15 08:47:09;;;;;;;8.52;1.90;;;;;;;23.71;40.43;99605.81;5027586;28;20079;-21
2021/05/15 08:49:36;;;;;;;5.45;2.15;;;;;;;23.57;41.27;99593.13;5027314;28;20401;-21
2021/05/15 08:52:02;;;;;;;5.07;2.42;;;;;;;23.43;41.01;99579.63;5027290;28;20057;-21
2021/05/15 08:54:27;;;;;;;4.93;1.90;;;;;;;23.59;40.44;99592.81;5028286;28;20044;-21
2021/05/15 08:56:52;;;;;;;9.30;2.13;;;;;;;23.84;41.43;99588.53;5027375;28;20068;-21
2021/05/15 08:59:18;;;;;;;10.82;3.03;;;;;;;23.96;40.31;99588.69;5028657;28;20084;-21
2021/05/15 09:01:44;;;;;;;7.53;2.05;;;;;;;24.19;41.97;99566.75;5028339;28;20038;-21
2021/05/15 09:04:10;;;;;;;4.65;1.73;;;;;;;24.50;39.68;99568.50;5028125;28;20087;-19
2021/05/15 09:06:39;;;;;;;10.77;2.17;;;;;;;24.56;39.61;99550.84;5028374;28;20583;-21
2021/05/15 09:09:04;;;;;;;5.88;1.55;;;;;;;24.68;39.88;99561.88;5028252;28;20030;-21
2021/05/15 09:11:30;;;;;;;7.63;1.77;;;;;;;24.89;38.92;99559.25;5028466;28;20037;-21
2021/05/15 09:13:55;;;;;;;5.15;1.60;;;;;;;24.78;39.68;99566.97;5028572;28;20037;-21
2021/05/15 09:16:21;;;;;;;7.03;1.85;;;;;;;24.35;41.61;99554.22;5027939;28;20041;-21
2021/05/15 09:18:46;;;;;;;6.95;2.33;;;;;;;23.79;40.48;99556.03;5027954;28;20026;-21
2021/05/15 09:21:17;;;;;;;8.68;1.92;;;;;;;23.71;41.73;99552.16;5028119;28;20421;-21
2021/05/15 09:23:46;;;;;;;4.97;2.20;;;;;;;23.47;42.22;99537.06;5028113;28;20064;-21
2021/05/15 09:26:13;;;;;;;4.07;1.95;;;;;;;23.46;42.14;99545.56;5027803;28;20099;-21
2021/05/15 09:28:46;;;;;;;5.60;1.95;;;;;;;23.39;41.33;99528.88;5027892;28;20084;-21
2021/05/15 09:31:20;;;;;;;9.50;2.53;;;;;;;23.22;41.57;99551.44;5027680;28;20029;-20
2021/05/15 09:33:48;;;;;;;7.40;2.60;;;;;;;23.42;42.53;99536.44;5027936;28;20029;-21
2021/05/15 09:36:22;;;;;;;5.40;1.80;;;;;;;23.55;42.04;99532.75;5027701;28;20033;-20
2021/05/15 09:39:08;;;;;;;7.28;1.55;;;;;;;23.75;40.51;99541.44;5027969;28;20029;-21
2021/05/15 09:41:54;;;;;;;6.07;2.08;;;;;;;23.31;40.58;99516.06;5027340;28;20042;-21
2021/05/15 09:44:30;;;;;;;4.78;1.85;;;;;;;23.39;41.21;99528.88;5027478;28;20512;-21
2021/05/15 09:46:56;;;;;;;5.18;1.65;;;;;;;23.23;40.42;99498.59;5028059;28;20040;-21
2021/05/15 09:49:23;;;;;;;7.82;2.00;;;;;;;23.49;41.48;99516.91;5027917;28;20075;-21
2021/05/15 09:51:51;;;;;;;4.57;1.42;;;;;;;23.35;39.84;99498.78;5027590;28;20068;-22
2021/05/15 09:54:21;;;;;;;6.38;1.90;;;;;;;23.44;40.12;99504.25;5027566;28;20036;-21
2021/05/15 09:57:16;;;;;;;4.43;1.27;;;;;;;23.64;40.63;99516.44;5027510;28;20037;-21
2021/05/15 09:59:43;;;;;;;7.05;1.55;;;;;;;23.50;39.94;99515.78;5026799;28;20034;-21
2021/05/15 10:02:18;;;;;;;4.87;1.30;;;;;;;23.68;40.24;99503.81;5027428;28;20041;-22
2021/05/15 10:04:48;;;;;;;4.40;1.20;;;;;;;23.61;39.68;99506.97;5027192;28;20060;-22
2021/05/15 10:07:21;;;;;;;5.05;1.48;;;;;;;23.51;40.30;99498.34;5027553;28;20044;-21
2021/05/15 10:09:47;;;;;;;16.83;11.85;;;;;;;23.06;42.68;99493.94;5027575;28;20037;-21
2021/05/15 10:12:12;;;;;;;10.70;7.13;;;;;;;22.74;43.13;99495.91;5027190;28;20036;-20
2021/05/15 10:14:38;;;;;;;12.50;7.00;;;;;;;22.98;44.03;99500.13;5027177;28;20037;-21
2021/05/15 10:17:03;;;;;;;9.63;4.93;;;;;;;22.81;48.08;99498.94;5027234;28;20025;-23
2021/05/15 10:19:29;;;;;;;6.97;2.60;;;;;;;22.57;47.72;99503.97;5027233;28;20029;-21
2021/05/15 10:21:55;;;;;;;12.02;3.30;;;;;;;22.98;49.32;99497.41;5027285;28;20146;-21
2021/05/15 10:24:24;;;;;;;12.25;3.30;;;;;;;22.84;50.62;99481.19;5026850;28;20029;-21
2021/05/15 10:27:10;;;;;;;9.05;2.60;;;;;;;22.91;51.45;99459.81;5026120;28;20144;-21
2021/05/15 10:29:52;;;;;;;7.15;2.50;;;;;;;23.05;46.82;99482.25;5025656;28;20478;-21
2021/05/15 10:32:17;;;;;;;8.32;3.67;;;;;;;23.14;48.58;99468.69;5026784;28;20026;-21
2021/05/15 10:34:47;;;;;;;7.93;3.13;;;;;;;23.70;50.51;99465.34;5027035;28;20033;-21
2021/05/15 10:37:19;;;;;;;9.30;3.00;;;;;;;23.85;48.34;99464.91;5027092;28;20083;-21
2021/05/15 10:39:45;;;;;;;9.35;2.42;;;;;;;24.24;47.98;99455.69;5026998;28;20787;-21
2021/05/15 10:42:11;;;;;;;9.73;2.92;;;;;;;24.78;48.01;99465.28;5026596;28;20030;-20
2021/05/15 10:44:41;;;;;;;7.25;2.33;;;;;;;24.95;46.08;99453.50;5026999;28;20033;-22
2021/05/15 10:47:07;;;;;;;6.43;2.42;;;;;;;25.16;44.86;99451.59;5027271;28;20099;-22
2021/05/15 10:49:32;;;;;;;6.28;2.65;;;;;;;24.78;48.07;99430.63;5027054;28;20037;-21
2021/05/15 10:52:16;;;;;;;7.15;2.72;;;;;;;25.18;46.31;99452.06;5028702;28;20064;-21
2021/05/15 10:54:51;;;;;;;7.60;2.83;;;;;;;24.72;42.13;99434.66;5030669;28;20053;-21
2021/05/15 10:57:23;;;;;;;8.23;1.70;;;;;;;24.43;40.39;99428.03;5031109;28;20098;-21
2021/05/15 10:59:56;;;;;;;4.38;1.77;;;;;;;24.27;40.57;99421.53;5030942;28;20552;-21
2021/05/15 11:02:21;;;;;;;6.88;1.70;;;;;;;24.61;41.66;99417.88;5030349;28;20083;-21
2021/05/15 11:04:53;;;;;;;7.25;1.83;;;;;;;24.49;41.34;99414.25;5030506;28;20469;-21
2021/05/15 11:07:20;;;;;;;7.35;2.10;;;;;;;24.20;42.76;99422.03;5030337;28;20037;-21
2021/05/15 11:09:58;;;;;;;5.93;2.35;;;;;;;23.91;43.46;99400.19;5030591;28;20021;-21
2021/05/15 11:12:25;;;;;;;7.97;1.63;;;;;;;24.41;43.12;99421.31;5030355;28;20041;-21
2021/05/15 11:14:51;;;;;;;9.40;2.70;;;;;;;24.93;41.72;99410.19;5030307;28;20028;-20
2021/05/15 11:17:24;;;;;;;6.07;2.40;;;;;;;24.53;40.44;99409.75;5030395;28;20030;-20
2021/05/15 11:19:52;;;;;;;5.90;2.20;;;;;;;24.44;41.01;99394.22;5029155;28;20493;-20
2021/05/15 11:22:18;;;;;;;4.28;1.83;;;;;;;24.45;39.71;99389.56;5030274;28;20024;-20
2021/05/15 11:24:52;;;;;;;4.82;1.80;;;;;;;24.21;39.76;99392.88;5030252;28;20025;-20
2021/05/15 11:27:19;;;;;;;5.70;2.03;;;;;;;24.11;42.70;99395.94;5030174;28;20062;-21
2021/05/15 11:29:44;;;;;;;5.13;1.90;;;;;;;24.34;40.44;99388.34;5030210;28;20025;-21
2021/05/15 11:32:14;;;;;;;4.57;2.00;;;;;;;24.56;41.71;99395.47;5029907;28;20034;-21